首页
METAR-TAF:

METAR-TAF

机场 :

基希讷乌国际机场

基希讷乌, 摩尔多瓦

纬度: 46-55-40N, 经度: 028-55-51E, 海拔: 122米

当前天气观测

该预报发布于22分钟前的02:30 UTC
风速14节,风向北转西北
温度 1°C
湿度 75%
气压 1038 hPa
能见度10公里或以上
阴天层高于2100英尺

METAR: LUKK 210230Z 33014KT 9999 OVC021 01/M03 Q1038 R08/D TEMPO OVC015

时间: 04:52 (02:52 UTC)

预报

该预报发布于3小时和32分钟前的23:20 UTC
预报有效从21日的 00点(UTC)到 21日的 24点(UTC)
风速12节,风向西北
能见度10公里或以上
阴天层高于1500英尺
成为
从 21日的 09点(UTC)到 21日的 11点(UTC)
散云层高于2500英尺

TAF: LUKK 202320Z 2100/2124 32012KT 9999 OVC015 BECMG 2109/2111 SCT025

超过4000个机场的气象观测和天气预报(METAR&TAF报告)。

可查询的气象台以黄色和红色小点在地图上表示。

将鼠标移到小点上方,可查看气象台名称。

然后点击查看天气观测和预报。

如需切换地图:点击带黑十字的绿色按钮放大地图;点击带横线的绿色按钮缩小地图;或者点击绿色箭头查看邻近地区的地图。


METAR-TAF: